Airfield :
LOGIN :

Register | Disclaimer

   EN    FR    IT 

 










Legend :    VFR   Marginal VFR   IFR   Intensive IFR   Very Intensive IFR
Visi :
Ceiling :
>= 8 km
>= 3000ft
5 to 8 km
1000 to 3000 ft
1500m to 5 km
500 to 1000 ft
800 to 1500m
200 to 500 ft
< 800m
< 200 ft
Symbols :   Thunderstorms  Fog  Heavy snow  Heavy precipitations  Wind > 20 kt
SIGMETs :     Misc.  Thunderstorms  Icing  Turbulence  Mountain Waves  Volcanic Ashes







- Airport Elevation : 459 ft
- IATA code : CER
- Download approach charts


LFRC - Cherbourg / Maupertus

CURRENT METAR :
  • 240500Z AUTO 21006KT CAVOK 05/05 Q1008

EXPIRED METARs :
  • 240430Z AUTO 22005KT CAVOK 07/05 Q1008
  • 240400Z AUTO 23005KT CAVOK 07/06 Q1008
  • 240330Z AUTO 22005KT CAVOK 07/06 Q1008
  • 240300Z AUTO VRB03KT CAVOK 06/05 Q1007
  • 240230Z AUTO VRB02KT CAVOK 07/06 Q1007

TAF TAF LFRC
Valid from the 24 at 06:00 until the 24 at 15:00 UTC


240500Z 2406/2415 23005KT 9999 BKN020
TEMPO 2406/2411 5000 SHRA BKN015
TEMPO 2411/2415 4000 SHRA BKN015CB
BECMG 2407/2409 27010KT
BECMG 2413/2415 VRB03KT
No reported NOTAMs for that airfield.



MET'MAP, your aeronautical weather chart ! - Copyright ORBIFLY December 2007 - Disclaimer

ORBIFLY MET'MAP TEAM :

Programming & Development : Alexandra Zaïnal
Concept & Development : Baudouin d'Aumeries
Co-Development & Prog : Marc-Olivier Méhu
Technical & hardware support : Manuel Goepfert

Contact : metmap@orbifly.com




SOURCES & CREDITS :

   NOAA